sensor_id;sensor_type;location;lat;lon;timestamp;temperature;humidity
13521;DHT22;6832;51.186;3.236;2022-09-06T00:01:23;23.60;65.10
13521;DHT22;6832;51.186;3.236;2022-09-06T00:03:54;23.50;65.40
13521;DHT22;6832;51.186;3.236;2022-09-06T00:06:23;23.50;65.10
13521;DHT22;6832;51.186;3.236;2022-09-06T00:08:50;23.50;65.10
13521;DHT22;6832;51.186;3.236;2022-09-06T00:11:44;23.50;65.30
13521;DHT22;6832;51.186;3.236;2022-09-06T00:14:22;23.50;65.80
13521;DHT22;6832;51.186;3.236;2022-09-06T00:20:15;23.50;65.20
13521;DHT22;6832;51.186;3.236;2022-09-06T00:22:42;23.50;64.50
13521;DHT22;6832;51.186;3.236;2022-09-06T00:26:30;23.50;64.80
13521;DHT22;6832;51.186;3.236;2022-09-06T00:28:17;23.40;65.00
13521;DHT22;6832;51.186;3.236;2022-09-06T00:30:47;23.40;64.50
13521;DHT22;6832;51.186;3.236;2022-09-06T00:33:25;23.50;64.90
13521;DHT22;6832;51.186;3.236;2022-09-06T00:39:18;23.40;65.90
13521;DHT22;6832;51.186;3.236;2022-09-06T00:41:46;23.40;65.10
13521;DHT22;6832;51.186;3.236;2022-09-06T00:44:14;23.50;65.10
13521;DHT22;6832;51.186;3.236;2022-09-06T00:46:51;23.40;65.30
13521;DHT22;6832;51.186;3.236;2022-09-06T00:52:30;23.40;66.10
13521;DHT22;6832;51.186;3.236;2022-09-06T00:55:09;23.40;65.20
13521;DHT22;6832;51.186;3.236;2022-09-06T00:57:38;23.40;65.80
13521;DHT22;6832;51.186;3.236;2022-09-06T01:00:17;23.40;65.60
13521;DHT22;6832;51.186;3.236;2022-09-06T01:02:49;23.40;65.70
13521;DHT22;6832;51.186;3.236;2022-09-06T01:05:19;23.40;66.00
13521;DHT22;6832;51.186;3.236;2022-09-06T01:08:04;23.40;65.90
13521;DHT22;6832;51.186;3.236;2022-09-06T01:11:05;23.40;66.10
13521;DHT22;6832;51.186;3.236;2022-09-06T01:13:39;23.40;65.90
13521;DHT22;6832;51.186;3.236;2022-09-06T01:16:14;23.30;65.80
13521;DHT22;6832;51.186;3.236;2022-09-06T01:19:02;23.30;65.90
13521;DHT22;6832;51.186;3.236;2022-09-06T01:21:44;23.30;66.40
13521;DHT22;6832;51.186;3.236;2022-09-06T01:24:45;23.30;65.90
13521;DHT22;6832;51.186;3.236;2022-09-06T01:30:23;23.30;66.40
13521;DHT22;6832;51.186;3.236;2022-09-06T01:32:59;23.30;65.90
13521;DHT22;6832;51.186;3.236;2022-09-06T01:35:33;23.30;66.10
13521;DHT22;6832;51.186;3.236;2022-09-06T01:41:10;23.20;66.00
13521;DHT22;6832;51.186;3.236;2022-09-06T01:43:40;23.20;65.70
13521;DHT22;6832;51.186;3.236;2022-09-06T01:46:41;23.20;65.90
13521;DHT22;6832;51.186;3.236;2022-09-06T01:49:26;23.20;66.50
13521;DHT22;6832;51.186;3.236;2022-09-06T01:52:34;23.20;66.60
13521;DHT22;6832;51.186;3.236;2022-09-06T01:55:57;23.20;67.70
13521;DHT22;6832;51.186;3.236;2022-09-06T01:58:55;23.20;66.40
13521;DHT22;6832;51.186;3.236;2022-09-06T02:01:30;23.10;66.30
13521;DHT22;6832;51.186;3.236;2022-09-06T02:04:19;23.10;66.20
13521;DHT22;6832;51.186;3.236;2022-09-06T02:10:02;23.10;66.70
13521;DHT22;6832;51.186;3.236;2022-09-06T02:12:43;23.00;66.60
13521;DHT22;6832;51.186;3.236;2022-09-06T02:15:20;23.00;67.20
13521;DHT22;6832;51.186;3.236;2022-09-06T02:17:56;23.00;67.00
13521;DHT22;6832;51.186;3.236;2022-09-06T02:20:31;23.00;67.10
13521;DHT22;6832;51.186;3.236;2022-09-06T02:23:05;23.00;67.00
13521;DHT22;6832;51.186;3.236;2022-09-06T02:25:38;23.00;67.00
13521;DHT22;6832;51.186;3.236;2022-09-06T02:28:14;23.00;66.90
13521;DHT22;6832;51.186;3.236;2022-09-06T02:30:59;23.00;67.50
13521;DHT22;6832;51.186;3.236;2022-09-06T02:33:44;22.90;67.40
13521;DHT22;6832;51.186;3.236;2022-09-06T02:36:31;23.00;67.50
13521;DHT22;6832;51.186;3.236;2022-09-06T02:39:36;22.90;67.70
13521;DHT22;6832;51.186;3.236;2022-09-06T02:42:36;22.90;67.50
13521;DHT22;6832;51.186;3.236;2022-09-06T02:49:06;22.90;67.40
13521;DHT22;6832;51.186;3.236;2022-09-06T02:54:22;22.80;66.70
13521;DHT22;6832;51.186;3.236;2022-09-06T03:01:34;22.80;67.60
13521;DHT22;6832;51.186;3.236;2022-09-06T03:03:36;22.80;67.20
13521;DHT22;6832;51.186;3.236;2022-09-06T03:06:12;22.80;67.80
13521;DHT22;6832;51.186;3.236;2022-09-06T03:08:58;22.70;67.70
13521;DHT22;6832;51.186;3.236;2022-09-06T03:11:40;22.70;68.30
13521;DHT22;6832;51.186;3.236;2022-09-06T03:14:55;22.70;67.40
13521;DHT22;6832;51.186;3.236;2022-09-06T03:17:56;22.60;68.10
13521;DHT22;6832;51.186;3.236;2022-09-06T03:20:54;22.60;68.50
13521;DHT22;6832;51.186;3.236;2022-09-06T03:30:29;22.60;68.50
13521;DHT22;6832;51.186;3.236;2022-09-06T03:32:57;22.50;68.10
13521;DHT22;6832;51.186;3.236;2022-09-06T03:35:25;22.40;68.20
13521;DHT22;6832;51.186;3.236;2022-09-06T03:37:58;22.40;68.30
13521;DHT22;6832;51.186;3.236;2022-09-06T03:40:27;22.40;68.30
13521;DHT22;6832;51.186;3.236;2022-09-06T03:42:55;22.40;68.30
13521;DHT22;6832;51.186;3.236;2022-09-06T03:45:25;22.30;68.40
13521;DHT22;6832;51.186;3.236;2022-09-06T03:51:00;22.30;69.50
13521;DHT22;6832;51.186;3.236;2022-09-06T03:53:37;22.30;68.80
13521;DHT22;6832;51.186;3.236;2022-09-06T03:56:26;22.20;69.70
13521;DHT22;6832;51.186;3.236;2022-09-06T03:58:55;22.20;70.00
13521;DHT22;6832;51.186;3.236;2022-09-06T04:01:22;22.10;69.20
13521;DHT22;6832;51.186;3.236;2022-09-06T04:03:52;22.10;68.90
13521;DHT22;6832;51.186;3.236;2022-09-06T04:06:19;22.10;68.50
13521;DHT22;6832;51.186;3.236;2022-09-06T04:08:46;22.10;68.80
13521;DHT22;6832;51.186;3.236;2022-09-06T04:14:22;22.00;70.20
13521;DHT22;6832;51.186;3.236;2022-09-06T04:16:51;22.00;69.60
13521;DHT22;6832;51.186;3.236;2022-09-06T04:19:34;22.00;69.90
13521;DHT22;6832;51.186;3.236;2022-09-06T04:22:01;21.90;70.20
13521;DHT22;6832;51.186;3.236;2022-09-06T04:27:03;21.90;70.70
13521;DHT22;6832;51.186;3.236;2022-09-06T04:29:30;21.90;69.80
13521;DHT22;6832;51.186;3.236;2022-09-06T04:31:58;21.80;70.10
13521;DHT22;6832;51.186;3.236;2022-09-06T04:34:49;21.80;70.30
13521;DHT22;6832;51.186;3.236;2022-09-06T04:37:24;21.80;70.80
13521;DHT22;6832;51.186;3.236;2022-09-06T04:40:27;21.80;71.00
13521;DHT22;6832;51.186;3.236;2022-09-06T04:42:55;21.80;71.50
13521;DHT22;6832;51.186;3.236;2022-09-06T04:45:26;21.70;70.40
13521;DHT22;6832;51.186;3.236;2022-09-06T04:47:53;21.70;69.80
13521;DHT22;6832;51.186;3.236;2022-09-06T04:50:28;21.60;70.00
13521;DHT22;6832;51.186;3.236;2022-09-06T04:52:57;21.70;71.70
13521;DHT22;6832;51.186;3.236;2022-09-06T04:55:26;21.70;70.90
13521;DHT22;6832;51.186;3.236;2022-09-06T04:58:07;21.60;71.10
13521;DHT22;6832;51.186;3.236;2022-09-06T05:00:34;21.60;70.90
13521;DHT22;6832;51.186;3.236;2022-09-06T05:03:15;21.60;71.30
13521;DHT22;6832;51.186;3.236;2022-09-06T05:05:44;21.60;71.40
13521;DHT22;6832;51.186;3.236;2022-09-06T05:08:11;21.50;71.70
13521;DHT22;6832;51.186;3.236;2022-09-06T05:13:34;21.50;72.10
13521;DHT22;6832;51.186;3.236;2022-09-06T05:16:04;21.40;72.10
13521;DHT22;6832;51.186;3.236;2022-09-06T05:18:32;21.40;72.50
13521;DHT22;6832;51.186;3.236;2022-09-06T05:21:36;21.40;72.30
13521;DHT22;6832;51.186;3.236;2022-09-06T05:24:06;21.40;73.00
13521;DHT22;6832;51.186;3.236;2022-09-06T05:26:39;21.40;72.10
13521;DHT22;6832;51.186;3.236;2022-09-06T05:29:28;21.30;72.40
13521;DHT22;6832;51.186;3.236;2022-09-06T05:31:57;21.30;72.90
13521;DHT22;6832;51.186;3.236;2022-09-06T05:34:26;21.40;72.10
13521;DHT22;6832;51.186;3.236;2022-09-06T05:37:01;21.30;72.10
13521;DHT22;6832;51.186;3.236;2022-09-06T05:39:28;21.30;72.40
13521;DHT22;6832;51.186;3.236;2022-09-06T05:42:03;21.30;71.70
13521;DHT22;6832;51.186;3.236;2022-09-06T05:44:32;21.30;72.10
13521;DHT22;6832;51.186;3.236;2022-09-06T05:47:00;21.30;71.90
13521;DHT22;6832;51.186;3.236;2022-09-06T05:49:32;21.30;72.10
13521;DHT22;6832;51.186;3.236;2022-09-06T05:52:28;21.20;72.20
13521;DHT22;6832;51.186;3.236;2022-09-06T05:55:17;21.20;72.70
13521;DHT22;6832;51.186;3.236;2022-09-06T06:01:06;21.20;72.10
13521;DHT22;6832;51.186;3.236;2022-09-06T06:03:36;21.20;72.90
13521;DHT22;6832;51.186;3.236;2022-09-06T06:06:10;21.20;72.40
13521;DHT22;6832;51.186;3.236;2022-09-06T06:08:40;21.20;72.70
13521;DHT22;6832;51.186;3.236;2022-09-06T06:14:07;21.10;73.00
13521;DHT22;6832;51.186;3.236;2022-09-06T06:16:34;21.20;73.10
13521;DHT22;6832;51.186;3.236;2022-09-06T06:19:04;21.20;73.40
13521;DHT22;6832;51.186;3.236;2022-09-06T06:21:40;21.10;73.70
13521;DHT22;6832;51.186;3.236;2022-09-06T06:24:11;21.10;74.30
13521;DHT22;6832;51.186;3.236;2022-09-06T06:27:00;21.10;74.10
13521;DHT22;6832;51.186;3.236;2022-09-06T06:29:38;21.20;74.60
13521;DHT22;6832;51.186;3.236;2022-09-06T06:32:06;21.20;74.00
13521;DHT22;6832;51.186;3.236;2022-09-06T06:34:34;21.10;74.40
13521;DHT22;6832;51.186;3.236;2022-09-06T06:37:01;21.20;74.60
13521;DHT22;6832;51.186;3.236;2022-09-06T06:39:33;21.20;74.80
13521;DHT22;6832;51.186;3.236;2022-09-06T06:42:02;21.20;75.50
13521;DHT22;6832;51.186;3.236;2022-09-06T06:44:30;21.20;75.40
13521;DHT22;6832;51.186;3.236;2022-09-06T06:47:02;21.20;75.40
13521;DHT22;6832;51.186;3.236;2022-09-06T06:49:34;21.30;75.90
13521;DHT22;6832;51.186;3.236;2022-09-06T06:52:15;21.30;75.60
13521;DHT22;6832;51.186;3.236;2022-09-06T06:55:46;21.30;76.90
13521;DHT22;6832;51.186;3.236;2022-09-06T06:58:48;21.40;76.90
13521;DHT22;6832;51.186;3.236;2022-09-06T07:01:26;21.40;76.80
13521;DHT22;6832;51.186;3.236;2022-09-06T07:03:57;21.50;76.10
13521;DHT22;6832;51.186;3.236;2022-09-06T07:09:37;21.50;77.00
13521;DHT22;6832;51.186;3.236;2022-09-06T07:12:16;21.60;76.40
13521;DHT22;6832;51.186;3.236;2022-09-06T07:14:43;21.60;77.00
13521;DHT22;6832;51.186;3.236;2022-09-06T07:17:36;21.70;76.20
13521;DHT22;6832;51.186;3.236;2022-09-06T07:20:35;21.70;76.80
13521;DHT22;6832;51.186;3.236;2022-09-06T07:23:40;21.80;76.30
13521;DHT22;6832;51.186;3.236;2022-09-06T07:26:13;21.90;77.00
13521;DHT22;6832;51.186;3.236;2022-09-06T07:28:42;21.90;76.50
13521;DHT22;6832;51.186;3.236;2022-09-06T07:31:27;22.00;76.60
13521;DHT22;6832;51.186;3.236;2022-09-06T07:34:04;22.00;77.10
13521;DHT22;6832;51.186;3.236;2022-09-06T07:36:31;22.10;77.00
13521;DHT22;6832;51.186;3.236;2022-09-06T07:38:59;22.10;76.60
13521;DHT22;6832;51.186;3.236;2022-09-06T07:44:29;22.20;76.80
13521;DHT22;6832;51.186;3.236;2022-09-06T07:46:56;22.30;77.90
13521;DHT22;6832;51.186;3.236;2022-09-06T07:49:25;22.40;77.00
13521;DHT22;6832;51.186;3.236;2022-09-06T07:51:55;22.40;77.10
13521;DHT22;6832;51.186;3.236;2022-09-06T07:54:22;22.50;77.80
13521;DHT22;6832;51.186;3.236;2022-09-06T07:56:53;22.60;77.60
13521;DHT22;6832;51.186;3.236;2022-09-06T07:59:25;22.60;77.80
13521;DHT22;6832;51.186;3.236;2022-09-06T08:01:54;22.70;77.70
13521;DHT22;6832;51.186;3.236;2022-09-06T08:04:54;22.80;77.50
13521;DHT22;6832;51.186;3.236;2022-09-06T08:07:22;22.90;77.90
13521;DHT22;6832;51.186;3.236;2022-09-06T08:10:03;23.00;76.90
13521;DHT22;6832;51.186;3.236;2022-09-06T08:12:32;23.10;76.60
13521;DHT22;6832;51.186;3.236;2022-09-06T08:15:02;23.20;76.80
13521;DHT22;6832;51.186;3.236;2022-09-06T08:20:17;23.30;76.80
13521;DHT22;6832;51.186;3.236;2022-09-06T08:23:02;23.40;76.70
13521;DHT22;6832;51.186;3.236;2022-09-06T08:25:38;23.50;76.80
13521;DHT22;6832;51.186;3.236;2022-09-06T08:28:05;23.60;76.70
13521;DHT22;6832;51.186;3.236;2022-09-06T08:30:46;23.70;76.50
13521;DHT22;6832;51.186;3.236;2022-09-06T08:33:15;23.70;76.10
13521;DHT22;6832;51.186;3.236;2022-09-06T08:35:53;23.80;75.90
13521;DHT22;6832;51.186;3.236;2022-09-06T08:38:20;23.90;75.70
13521;DHT22;6832;51.186;3.236;2022-09-06T08:41:23;24.00;75.70
13521;DHT22;6832;51.186;3.236;2022-09-06T08:44:14;24.10;76.00
13521;DHT22;6832;51.186;3.236;2022-09-06T08:52:59;24.70;75.10
13521;DHT22;6832;51.186;3.236;2022-09-06T08:55:58;24.90;74.90
13521;DHT22;6832;51.186;3.236;2022-09-06T08:58:36;25.10;74.10
13521;DHT22;6832;51.186;3.236;2022-09-06T09:01:09;25.30;73.60
13521;DHT22;6832;51.186;3.236;2022-09-06T09:03:42;25.60;73.00
13521;DHT22;6832;51.186;3.236;2022-09-06T09:06:10;25.70;72.20
13521;DHT22;6832;51.186;3.236;2022-09-06T09:11:48;26.10;71.20
13521;DHT22;6832;51.186;3.236;2022-09-06T09:14:39;26.30;71.60
13521;DHT22;6832;51.186;3.236;2022-09-06T09:20:39;26.80;68.90
13521;DHT22;6832;51.186;3.236;2022-09-06T09:23:07;27.00;69.20
13521;DHT22;6832;51.186;3.236;2022-09-06T09:25:37;27.20;68.60
13521;DHT22;6832;51.186;3.236;2022-09-06T09:28:13;27.40;67.50
13521;DHT22;6832;51.186;3.236;2022-09-06T09:30:47;27.50;67.10
13521;DHT22;6832;51.186;3.236;2022-09-06T09:33:23;27.80;66.60
13521;DHT22;6832;51.186;3.236;2022-09-06T09:35:53;28.00;66.40
13521;DHT22;6832;51.186;3.236;2022-09-06T09:38:23;28.20;65.80
13521;DHT22;6832;51.186;3.236;2022-09-06T09:41:02;28.30;66.10
13521;DHT22;6832;51.186;3.236;2022-09-06T09:46:32;28.80;64.30
13521;DHT22;6832;51.186;3.236;2022-09-06T09:49:11;29.00;63.80
13521;DHT22;6832;51.186;3.236;2022-09-06T09:52:06;29.30;62.30
13521;DHT22;6832;51.186;3.236;2022-09-06T09:54:36;29.50;60.30
13521;DHT22;6832;51.186;3.236;2022-09-06T10:00:49;29.80;59.10
13521;DHT22;6832;51.186;3.236;2022-09-06T10:03:35;30.00;58.80
13521;DHT22;6832;51.186;3.236;2022-09-06T10:06:03;30.10;59.40
13521;DHT22;6832;51.186;3.236;2022-09-06T10:08:33;30.30;58.50
13521;DHT22;6832;51.186;3.236;2022-09-06T10:14:09;30.50;56.90
13521;DHT22;6832;51.186;3.236;2022-09-06T10:16:44;30.60;56.30
13521;DHT22;6832;51.186;3.236;2022-09-06T10:19:36;30.70;56.30
13521;DHT22;6832;51.186;3.236;2022-09-06T10:25:29;30.90;55.60
13521;DHT22;6832;51.186;3.236;2022-09-06T10:28:34;31.10;55.60
13521;DHT22;6832;51.186;3.236;2022-09-06T10:31:22;31.10;54.90
13521;DHT22;6832;51.186;3.236;2022-09-06T10:34:38;31.20;55.00
13521;DHT22;6832;51.186;3.236;2022-09-06T10:37:28;31.30;54.60
13521;DHT22;6832;51.186;3.236;2022-09-06T10:43:17;31.50;54.10
13521;DHT22;6832;51.186;3.236;2022-09-06T10:45:49;31.60;54.50
13521;DHT22;6832;51.186;3.236;2022-09-06T10:48:40;31.60;54.20
13521;DHT22;6832;51.186;3.236;2022-09-06T10:51:20;31.70;53.50
13521;DHT22;6832;51.186;3.236;2022-09-06T10:53:55;31.80;52.70
13521;DHT22;6832;51.186;3.236;2022-09-06T10:56:30;31.90;52.90
13521;DHT22;6832;51.186;3.236;2022-09-06T10:59:12;31.90;53.10
13521;DHT22;6832;51.186;3.236;2022-09-06T11:01:48;32.00;52.60
13521;DHT22;6832;51.186;3.236;2022-09-06T11:04:24;32.00;52.80
13521;DHT22;6832;51.186;3.236;2022-09-06T11:06:56;32.10;52.70
13521;DHT22;6832;51.186;3.236;2022-09-06T11:10:13;32.10;52.20
13521;DHT22;6832;51.186;3.236;2022-09-06T11:13:03;32.20;52.40
13521;DHT22;6832;51.186;3.236;2022-09-06T11:15:39;32.30;51.50
13521;DHT22;6832;51.186;3.236;2022-09-06T11:18:35;32.30;51.30
13521;DHT22;6832;51.186;3.236;2022-09-06T11:21:37;32.40;51.30
13521;DHT22;6832;51.186;3.236;2022-09-06T11:24:11;32.40;50.80
13521;DHT22;6832;51.186;3.236;2022-09-06T11:26:43;32.50;51.70
13521;DHT22;6832;51.186;3.236;2022-09-06T11:29:17;32.50;50.80
13521;DHT22;6832;51.186;3.236;2022-09-06T11:31:56;32.60;50.80
13521;DHT22;6832;51.186;3.236;2022-09-06T11:37:32;32.70;50.80
13521;DHT22;6832;51.186;3.236;2022-09-06T11:40:14;32.70;50.00
13521;DHT22;6832;51.186;3.236;2022-09-06T11:43:08;32.80;49.70
13521;DHT22;6832;51.186;3.236;2022-09-06T11:45:41;32.80;49.70
13521;DHT22;6832;51.186;3.236;2022-09-06T11:48:35;32.80;49.70
13521;DHT22;6832;51.186;3.236;2022-09-06T11:51:05;32.90;49.20
13521;DHT22;6832;51.186;3.236;2022-09-06T11:54:15;33.00;49.60
13521;DHT22;6832;51.186;3.236;2022-09-06T11:56:56;33.00;49.10
13521;DHT22;6832;51.186;3.236;2022-09-06T11:59:57;33.10;48.70
13521;DHT22;6832;51.186;3.236;2022-09-06T12:02:37;33.10;48.60
13521;DHT22;6832;51.186;3.236;2022-09-06T12:05:20;33.20;49.00
13521;DHT22;6832;51.186;3.236;2022-09-06T12:10:57;33.10;47.50
13521;DHT22;6832;51.186;3.236;2022-09-06T12:13:47;33.10;48.30
13521;DHT22;6832;51.186;3.236;2022-09-06T12:16:15;33.10;47.90
13521;DHT22;6832;51.186;3.236;2022-09-06T12:19:05;33.10;48.50
13521;DHT22;6832;51.186;3.236;2022-09-06T12:21:39;33.10;47.40
13521;DHT22;6832;51.186;3.236;2022-09-06T12:24:08;33.00;46.50
13521;DHT22;6832;51.186;3.236;2022-09-06T12:27:10;33.00;47.30
13521;DHT22;6832;51.186;3.236;2022-09-06T12:30:00;32.90;46.30
13521;DHT22;6832;51.186;3.236;2022-09-06T12:32:31;32.90;46.30
13521;DHT22;6832;51.186;3.236;2022-09-06T12:35:01;32.90;46.70
13521;DHT22;6832;51.186;3.236;2022-09-06T12:37:33;32.90;46.90
13521;DHT22;6832;51.186;3.236;2022-09-06T12:40:03;32.80;46.20
13521;DHT22;6832;51.186;3.236;2022-09-06T12:42:31;32.90;46.30
13521;DHT22;6832;51.186;3.236;2022-09-06T12:45:02;32.90;46.30
13521;DHT22;6832;51.186;3.236;2022-09-06T12:47:32;33.00;45.80
13521;DHT22;6832;51.186;3.236;2022-09-06T12:50:14;33.00;45.90
13521;DHT22;6832;51.186;3.236;2022-09-06T12:52:59;33.10;45.30
13521;DHT22;6832;51.186;3.236;2022-09-06T12:55:28;33.10;45.20
13521;DHT22;6832;51.186;3.236;2022-09-06T12:58:21;33.20;46.10
13521;DHT22;6832;51.186;3.236;2022-09-06T13:01:10;33.30;45.30
13521;DHT22;6832;51.186;3.236;2022-09-06T13:03:41;33.40;45.30
13521;DHT22;6832;51.186;3.236;2022-09-06T13:06:18;33.40;45.50
13521;DHT22;6832;51.186;3.236;2022-09-06T13:08:50;33.50;44.30
13521;DHT22;6832;51.186;3.236;2022-09-06T13:11:23;33.50;44.30
13521;DHT22;6832;51.186;3.236;2022-09-06T13:13:52;33.60;43.60
13521;DHT22;6832;51.186;3.236;2022-09-06T13:16:27;33.50;43.90
13521;DHT22;6832;51.186;3.236;2022-09-06T13:19:10;33.50;43.80
13521;DHT22;6832;51.186;3.236;2022-09-06T13:21:59;33.40;43.40
13521;DHT22;6832;51.186;3.236;2022-09-06T13:24:42;33.40;43.40
13521;DHT22;6832;51.186;3.236;2022-09-06T13:27:26;33.20;43.20
13521;DHT22;6832;51.186;3.236;2022-09-06T13:30:03;33.10;42.60
13521;DHT22;6832;51.186;3.236;2022-09-06T13:32:33;33.00;43.60
13521;DHT22;6832;51.186;3.236;2022-09-06T13:35:03;32.90;43.60
13521;DHT22;6832;51.186;3.236;2022-09-06T13:37:32;32.80;43.80
13521;DHT22;6832;51.186;3.236;2022-09-06T13:40:35;32.70;43.80
13521;DHT22;6832;51.186;3.236;2022-09-06T13:43:23;32.60;43.60
13521;DHT22;6832;51.186;3.236;2022-09-06T13:46:03;32.50;43.70
13521;DHT22;6832;51.186;3.236;2022-09-06T13:48:37;32.50;43.70
13521;DHT22;6832;51.186;3.236;2022-09-06T13:51:16;32.50;43.80
13521;DHT22;6832;51.186;3.236;2022-09-06T13:53:46;32.40;43.40
13521;DHT22;6832;51.186;3.236;2022-09-06T13:56:18;32.50;43.80
13521;DHT22;6832;51.186;3.236;2022-09-06T13:58:44;32.40;43.60
13521;DHT22;6832;51.186;3.236;2022-09-06T14:01:12;32.40;43.80
13521;DHT22;6832;51.186;3.236;2022-09-06T14:03:41;32.40;44.10
13521;DHT22;6832;51.186;3.236;2022-09-06T14:06:09;32.40;44.10
13521;DHT22;6832;51.186;3.236;2022-09-06T14:08:44;32.40;44.30
13521;DHT22;6832;51.186;3.236;2022-09-06T14:11:33;32.50;44.00
13521;DHT22;6832;51.186;3.236;2022-09-06T14:14:15;32.50;44.00
13521;DHT22;6832;51.186;3.236;2022-09-06T14:16:43;32.40;44.10
13521;DHT22;6832;51.186;3.236;2022-09-06T14:19:13;32.40;44.10
13521;DHT22;6832;51.186;3.236;2022-09-06T14:21:55;32.40;44.00
13521;DHT22;6832;51.186;3.236;2022-09-06T14:27:51;32.40;44.00
13521;DHT22;6832;51.186;3.236;2022-09-06T14:34:01;32.30;44.30
13521;DHT22;6832;51.186;3.236;2022-09-06T14:37:53;32.20;44.30
13521;DHT22;6832;51.186;3.236;2022-09-06T14:39:51;32.20;44.20
13521;DHT22;6832;51.186;3.236;2022-09-06T14:42:19;32.10;44.50
13521;DHT22;6832;51.186;3.236;2022-09-06T14:44:51;32.10;44.50
13521;DHT22;6832;51.186;3.236;2022-09-06T14:47:19;32.10;44.00
13521;DHT22;6832;51.186;3.236;2022-09-06T14:49:49;32.00;43.90
13521;DHT22;6832;51.186;3.236;2022-09-06T14:52:18;32.00;43.80
13521;DHT22;6832;51.186;3.236;2022-09-06T14:54:45;31.90;43.70
13521;DHT22;6832;51.186;3.236;2022-09-06T14:57:30;31.80;43.70
13521;DHT22;6832;51.186;3.236;2022-09-06T15:00:32;31.70;43.70
13521;DHT22;6832;51.186;3.236;2022-09-06T15:03:01;31.60;43.70
13521;DHT22;6832;51.186;3.236;2022-09-06T15:05:28;31.50;43.90
13521;DHT22;6832;51.186;3.236;2022-09-06T15:08:17;31.30;44.00
13521;DHT22;6832;51.186;3.236;2022-09-06T15:10:52;31.20;44.10
13521;DHT22;6832;51.186;3.236;2022-09-06T15:13:50;31.10;44.50
13521;DHT22;6832;51.186;3.236;2022-09-06T15:16:32;31.10;45.20
13521;DHT22;6832;51.186;3.236;2022-09-06T15:19:00;30.90;45.50
13521;DHT22;6832;51.186;3.236;2022-09-06T15:21:29;30.90;45.70
13521;DHT22;6832;51.186;3.236;2022-09-06T15:23:57;30.90;46.30
13521;DHT22;6832;51.186;3.236;2022-09-06T15:27:05;30.80;45.90
13521;DHT22;6832;51.186;3.236;2022-09-06T15:29:32;30.80;45.30
13521;DHT22;6832;51.186;3.236;2022-09-06T15:32:01;30.80;45.00
13521;DHT22;6832;51.186;3.236;2022-09-06T15:34:28;30.80;45.00
13521;DHT22;6832;51.186;3.236;2022-09-06T15:36:55;30.70;45.00
13521;DHT22;6832;51.186;3.236;2022-09-06T15:42:48;30.60;45.40
13521;DHT22;6832;51.186;3.236;2022-09-06T15:45:15;30.60;45.70
13521;DHT22;6832;51.186;3.236;2022-09-06T15:47:43;30.50;45.80
13521;DHT22;6832;51.186;3.236;2022-09-06T15:50:12;30.50;46.00
13521;DHT22;6832;51.186;3.236;2022-09-06T15:52:55;30.50;45.90
13521;DHT22;6832;51.186;3.236;2022-09-06T15:55:22;30.50;46.00
13521;DHT22;6832;51.186;3.236;2022-09-06T15:58:15;30.40;45.90
13521;DHT22;6832;51.186;3.236;2022-09-06T16:00:43;30.40;46.20
13521;DHT22;6832;51.186;3.236;2022-09-06T16:06:02;30.40;46.50
13521;DHT22;6832;51.186;3.236;2022-09-06T16:08:30;30.30;46.60
13521;DHT22;6832;51.186;3.236;2022-09-06T16:11:13;30.30;46.30
13521;DHT22;6832;51.186;3.236;2022-09-06T16:17:07;30.30;46.40
13521;DHT22;6832;51.186;3.236;2022-09-06T16:19:38;30.30;46.20
13521;DHT22;6832;51.186;3.236;2022-09-06T16:22:06;30.30;46.30
13521;DHT22;6832;51.186;3.236;2022-09-06T16:27:56;30.30;46.80
13521;DHT22;6832;51.186;3.236;2022-09-06T16:34:11;30.20;46.40
13521;DHT22;6832;51.186;3.236;2022-09-06T16:36:40;30.30;46.70
13521;DHT22;6832;51.186;3.236;2022-09-06T16:39:08;30.30;46.80
13521;DHT22;6832;51.186;3.236;2022-09-06T16:41:39;30.30;46.80
13521;DHT22;6832;51.186;3.236;2022-09-06T16:47:28;30.30;46.90
13521;DHT22;6832;51.186;3.236;2022-09-06T16:49:56;30.30;47.00
13521;DHT22;6832;51.186;3.236;2022-09-06T16:52:26;30.40;47.30
13521;DHT22;6832;51.186;3.236;2022-09-06T16:54:53;30.40;47.40
13521;DHT22;6832;51.186;3.236;2022-09-06T16:57:21;30.40;47.30
13521;DHT22;6832;51.186;3.236;2022-09-06T17:04:16;30.40;47.40
13521;DHT22;6832;51.186;3.236;2022-09-06T17:06:33;30.40;47.30
13521;DHT22;6832;51.186;3.236;2022-09-06T17:09:19;30.50;47.20
13521;DHT22;6832;51.186;3.236;2022-09-06T17:15:15;30.40;47.70
13521;DHT22;6832;51.186;3.236;2022-09-06T17:17:46;30.50;47.80
13521;DHT22;6832;51.186;3.236;2022-09-06T17:21:25;30.50;47.90
13521;DHT22;6832;51.186;3.236;2022-09-06T17:23:55;30.40;47.10
13521;DHT22;6832;51.186;3.236;2022-09-06T17:26:37;30.40;47.20
13521;DHT22;6832;51.186;3.236;2022-09-06T17:29:06;30.40;47.40
13521;DHT22;6832;51.186;3.236;2022-09-06T17:35:11;30.40;47.90
13521;DHT22;6832;51.186;3.236;2022-09-06T17:40:14;30.40;47.90
13521;DHT22;6832;51.186;3.236;2022-09-06T17:43:03;30.30;47.50
13521;DHT22;6832;51.186;3.236;2022-09-06T17:45:35;30.30;47.80
13521;DHT22;6832;51.186;3.236;2022-09-06T17:51:25;30.30;47.90
13521;DHT22;6832;51.186;3.236;2022-09-06T17:53:56;30.30;48.10
13521;DHT22;6832;51.186;3.236;2022-09-06T17:56:37;30.30;48.20
13521;DHT22;6832;51.186;3.236;2022-09-06T17:59:15;30.20;48.10
13521;DHT22;6832;51.186;3.236;2022-09-06T18:02:25;30.10;48.40
13521;DHT22;6832;51.186;3.236;2022-09-06T18:07:32;30.10;49.00
13521;DHT22;6832;51.186;3.236;2022-09-06T18:10:03;30.10;48.80
13521;DHT22;6832;51.186;3.236;2022-09-06T18:15:44;30.00;48.40
13521;DHT22;6832;51.186;3.236;2022-09-06T18:18:12;29.90;48.50
13521;DHT22;6832;51.186;3.236;2022-09-06T18:24:12;29.80;49.10
13521;DHT22;6832;51.186;3.236;2022-09-06T18:27:11;29.70;49.70
13521;DHT22;6832;51.186;3.236;2022-09-06T18:29:39;29.70;50.10
13521;DHT22;6832;51.186;3.236;2022-09-06T18:32:26;29.60;50.10
13521;DHT22;6832;51.186;3.236;2022-09-06T18:38:25;29.50;51.40
13521;DHT22;6832;51.186;3.236;2022-09-06T18:41:09;29.40;51.80
13521;DHT22;6832;51.186;3.236;2022-09-06T18:43:59;29.40;51.60
13521;DHT22;6832;51.186;3.236;2022-09-06T18:50:25;29.30;53.40
13521;DHT22;6832;51.186;3.236;2022-09-06T18:52:54;29.30;53.40
13521;DHT22;6832;51.186;3.236;2022-09-06T18:55:28;29.20;53.30
13521;DHT22;6832;51.186;3.236;2022-09-06T18:57:59;29.10;54.00
13521;DHT22;6832;51.186;3.236;2022-09-06T19:04:09;29.00;54.60
13521;DHT22;6832;51.186;3.236;2022-09-06T19:06:43;29.00;55.20
13521;DHT22;6832;51.186;3.236;2022-09-06T19:09:15;28.90;53.70
13521;DHT22;6832;51.186;3.236;2022-09-06T19:18:51;28.50;55.10
13521;DHT22;6832;51.186;3.236;2022-09-06T19:21:32;28.40;55.10
13521;DHT22;6832;51.186;3.236;2022-09-06T19:24:29;28.30;54.50
13521;DHT22;6832;51.186;3.236;2022-09-06T19:37:20;27.70;56.80
13521;DHT22;6832;51.186;3.236;2022-09-06T19:39:51;27.60;56.50
13521;DHT22;6832;51.186;3.236;2022-09-06T19:42:33;27.40;56.40
13521;DHT22;6832;51.186;3.236;2022-09-06T19:45:36;27.30;57.50
13521;DHT22;6832;51.186;3.236;2022-09-06T20:04:03;26.90;58.10
13521;DHT22;6832;51.186;3.236;2022-09-06T20:06:47;26.70;57.40